• Join FlightAware (Why Join?)
  • Login
  • US Flag 
06:04AM EDT


 

Airport Tracker/Info


-or-


 

Live Flight TrackerFlight Track Log ✈ EJA947 ✈ 14-Apr-2013 ✈ KSTL - KDSM

Flight Track Log - Related Links

Times and Time Zones

All times are in EDT time to prevent confusion due to time zone crossing. See the EJA947 flight status page for this flight to view local times or setup timezone preferences in your user account.

Time Position Orientation Groundspeed Altitude Reporting Facility
EDT Latitude Longitude Course Direction KTS MPH feet Rate Location/Type
07:48PM 38.7319 -90.2808 119° Southeast 162 186 1,700  Level FAA TRACON SMA TRACON (SMA)
07:48PM 38.7222 -90.2583 119° Southeast 182 209 2,800 2,580 Climbing FAA TRACON SMA TRACON (SMA)
07:49PM 38.7139 -90.2386 118° Southeast 201 231 3,400 2,040 Climbing FAA TRACON SMA TRACON (SMA)
07:49PM 38.7050 -90.2172 118° Southeast 217 250 4,200 2,400 Climbing FAA TRACON SMA TRACON (SMA)
07:49PM 38.6933 -90.1889 118° Southeast 230 265 5,000 1,800 Climbing FAA TRACON SMA TRACON (SMA)
07:50PM 38.6817 -90.1689 127° Southeast 236 272 5,400 1,020 Climbing FAA TRACON SMA TRACON (SMA)
07:50PM 38.6639 -90.1625 164° South 232 267 5,700 900 Climbing FAA TRACON SMA TRACON (SMA)
07:50PM 38.6447 -90.1778 212° Southwest 229 264 6,000 420 Climbing FAA TRACON SMA TRACON (SMA)
07:51PM 38.6383 -90.2025 252° West 238 274 6,000 720 Level FAA TRACON SMA TRACON (SMA)
07:51PM 38.6400 -90.2289 275° West 245 282 6,500 1,920 Climbing FAA TRACON SMA TRACON (SMA)
07:51PM 38.6461 -90.2631 283° West 252 290 7,300 2,460 Climbing FAA TRACON SMA TRACON (SMA)
07:52PM 38.6511 -90.2894 284° West 252 290 8,100 2,040 Climbing FAA TRACON SMA TRACON (SMA)
07:52PM 38.6564 -90.3161 284° West 250 288 8,700 1,800 Climbing FAA TRACON SMA TRACON (SMA)
07:52PM 38.6614 -90.3450 283° West 265 305 9,300 2,280 Climbing FAA TRACON SMA TRACON (SMA)
07:53PM 38.6681 -90.3839 282° West 292 336 10,200 2,040 Climbing FAA TRACON SMA TRACON (SMA)
07:53PM 38.6750 -90.4169 285° West 308 354 10,700 1,320 Climbing FAA TRACON SMA TRACON (SMA)
07:53PM 38.6822 -90.4508 285° West 319 367 11,100 1,380 Climbing FAA TRACON SMA TRACON (SMA)
07:54PM 38.6939 -90.4939 289° West 332 382 11,600 1,140 Climbing FAA TRACON SMA TRACON (SMA)
07:54PM 38.7061 -90.5281 295° West 341 392 11,900 600 Climbing FAA TRACON SMA TRACON (SMA)
07:54PM 38.7186 -90.5631 295° West 346 398 12,000 120 Climbing FAA TRACON SMA TRACON (SMA)
07:55PM 38.7308 -90.6075 289° West 347 399 12,000 420 Level FAA TRACON SMA TRACON (SMA)
07:55PM 38.7386 -90.6442 285° West 346 398 12,300 1,440 Climbing FAA TRACON SMA TRACON (SMA)
07:55PM 38.7469 -90.6806 286° West 346 398 13,000 2,160 Climbing FAA TRACON SMA TRACON (SMA)
07:56PM 38.7567 -90.7167 289° West 349 402 13,700 2,100 Climbing FAA TRACON SMA TRACON (SMA)
07:56PM 38.7772 -90.7583 302° West 360 414 14,400 1,860 Climbing FAA TRACON SMA TRACON (SMA)
07:56PM 38.8011 -90.7858 318° Northwest 372 428 15,000 2,100 Climbing FAA TRACON SMA TRACON (SMA)
07:57PM 38.8333 -90.8186 322° Northwest 382 440 15,800 1,980 Climbing FAA TRACON SMA TRACON (SMA)
07:57PM 38.8589 -90.8453 321° Northwest 384 442 16,300 1,560 Climbing FAA TRACON SMA TRACON (SMA)
07:57PM 38.8853 -90.8711 323° Northwest 385 443 16,900 2,220 Climbing FAA TRACON SMA TRACON (SMA)
07:58PM 38.9178 -90.9033 322° Northwest 383 441 17,800 2,520 Climbing FAA TRACON SMA TRACON (SMA)
07:58PM 38.9436 -90.9289 322° Northwest 381 438 18,600 1,860 Climbing FAA TRACON SMA TRACON (SMA)
07:58PM 38.9694 -90.9550 322° Northwest 383 441 19,100 1,380 Climbing FAA TRACON SMA TRACON (SMA)
07:59PM 38.9961 -90.9811 323° Northwest 384 442 19,500 1,620 Climbing FAA TRACON SMA TRACON (SMA)
07:59PM 39.0283 -91.0139 322° Northwest 385 443 20,200 1,680 Climbing FAA TRACON SMA TRACON (SMA)
07:59PM 39.0547 -91.0397 323° Northwest 387 445 20,700 1,500 Climbing FAA TRACON SMA TRACON (SMA)
08:00PM 39.0881 -91.0725 323° Northwest 389 448 21,200 1,260 Climbing FAA TRACON SMA TRACON (SMA)
08:00PM 39.1144 -91.0997 321° Northwest 393 452 21,500 900 Climbing FAA TRACON SMA TRACON (SMA)
08:00PM 39.1411 -91.1275 321° Northwest 398 458 21,800 840 Climbing FAA TRACON SMA TRACON (SMA)
08:01PM 39.1686 -91.1547 322° Northwest 403 464 22,100 1,200 Climbing FAA TRACON SMA TRACON (SMA)
08:01PM 39.2033 -91.1897 322° Northwest 410 472 22,600 1,200 Climbing FAA TRACON SMA TRACON (SMA)
08:01PM 39.2308 -91.2181 321° Northwest 413 475 22,900 1,020 Climbing FAA TRACON SMA TRACON (SMA)
08:02PM 39.2586 -91.2472 321° Northwest 417 480 23,300 1,140 Climbing FAA TRACON SMA TRACON (SMA)
08:02PM 39.2958 -91.2819 324° Northwest 423 487 23,700 1,020 Climbing FAA TRACON SMA TRACON (SMA)
08:02PM 39.3242 -91.3119 321° Northwest 427 491 24,000 1,020 Climbing FAA TRACON SMA TRACON (SMA)
08:03PM 39.3544 -91.3403 324° Northwest 433 498 24,400 1,080 Climbing FAA TRACON SMA TRACON (SMA)
08:03PM 39.4242 -91.4750 304° West 434 499 25,200 840 Climbing Kansas City Center
08:04PM 39.5281 -91.5839 321° Northwest 444 511 26,000 360 Climbing Kansas City Center
08:05PM 39.6225 -91.6814 322° Northwest 440 506 26,000  Level Kansas City Center
08:06PM 39.7131 -91.7783 321° Northwest 430 495 26,000  Level Kansas City Center
08:07PM 39.8064 -91.8758 321° Northwest 431 496 26,000  Level Kansas City Center
08:08PM 39.8992 -91.9733 321° Northwest 432 497 26,000  Level Kansas City Center
08:09PM 39.9917 -92.0717 321° Northwest 432 497 26,000  Level Kansas City Center
08:11PM 40.1036 -92.1892 321° Northwest 434 499 26,000  Level Kansas City Center
08:12PM 40.1964 -92.2883 321° Northwest 436 502 26,000  Level Kansas City Center
08:13PM 40.2858 -92.3839 321° Northwest 435 501 26,000 -420 Level Kansas City Center
08:14PM 40.3828 -92.4897 320° Northwest 441 507 25,200 -960 Descending Kansas City Center
08:15PM 40.4781 -92.5911 321° Northwest 441 507 24,000 -600 Descending Kansas City Center
08:16PM 40.5811 -92.7031 320° Northwest 419 482 24,000  Level Kansas City Center
08:17PM 40.6658 -92.7967 320° Northwest 419 482 24,000 -300 Level Kansas City Center
08:17PM 40.7042 -92.8358 322° Northwest 428 493 23,600 -2,340 Descending Chicago Center
08:18PM 40.7767 -92.9172 320° Northwest 430 495 21,400 -3,180 Descending Minneapolis Center
08:19PM 40.8647 -93.0131 321° Northwest 420 483 18,200 -3,420 Descending Minneapolis Center
08:20PM 40.9617 -93.1144 322° Northwest 393 452 14,500 -2,640 Descending Minneapolis Center
08:21PM 41.0378 -93.2014 319° Northwest 363 418 12,900 -1,620 Descending Minneapolis Center
08:22PM 41.1072 -93.2781 320° Northwest 330 380 11,300 -1,320 Descending Minneapolis Center
08:23PM 41.1778 -93.3567 320° Northwest 309 356 10,200 -720 Descending Minneapolis Center
08:24PM 41.2325 -93.4044 327° Northwest 305 351 10,000 -720 Descending Minneapolis Center
08:25PM 41.3014 -93.4808 320° Northwest 301 346 8,900 -1,440 Descending Minneapolis Center
08:26PM 41.3639 -93.5500 320° Northwest 296 341 7,100 -1,680 Descending Minneapolis Center
08:27PM 41.4217 -93.6167 319° Northwest 277 319 5,500 -1,380 Descending Minneapolis Center
08:28PM 41.4750 -93.6756 320° Northwest 249 287 4,400 -1,020 Descending Minneapolis Center
08:28PM 41.4792 -93.6969 285° West 242 278 4,100 -840 Descending Minneapolis Center
08:29PM 41.5156 -93.7331 323° Northwest 210 242 3,600 -720 Descending Minneapolis Center
08:29PM 41.5217 -93.7672 283° West 191 220 3,400 -720 Descending Minneapolis Center
08:30PM 41.5450 -93.7775 342° North 163 188 2,900 -900 Descending Minneapolis Center
08:30PM 41.5586 -93.7758 North 164 189 2,500 -900 Descending Minneapolis Center
08:31PM 41.5742 -93.7358 63° Northeast 168 193 2,000 -780 Descending Minneapolis Center
08:31PM 41.5706 -93.7161 104° East 168 193 1,700 -720 Descending Minneapolis Center
08:32PM 41.5653 -93.6839 102° East 145 167 1,300 -720 Descending Minneapolis Center
08:32PM 41.5461 -93.6756 162° South 133 153 1,000 -600 Descending Minneapolis Center